Tucson, AZ

7:40 AM MST on August 25, 2016 (GMT -0700)
El Gheko | | Change Station

Elev 2598 ft 32.23 °N, 110.84 °W | Updated 9 seconds ago

Clear
Clear
76.3 °F
Feels Like 78 °F
N
2.0
Wind Variable Wind from ESE
Gusts 4.0 mph

Today
High -- | Low -- °F
--% Chance of Precip.
Yesterday
High -- | Low -- °F
Precip. -- in
Pressure 29.92 in
Visibility 10.0 miles
Clouds Clear
Heat Index 78 °F
Dew Point 52 °F
Humidity 43%
Rainfall 0.00 in
Snow Depth Not available.
5:54 AM 6:55 PM
Last Quarter, 45% visible
METAR KDMA 251358Z AUTO 18007KT 10SM CLR 23/12 A3005 RMK AO2 SLP131 T02260116 $
Pressure 29.92 in
Visibility 10.0 miles
Clouds Clear
Heat Index 78 °F
Dew Point 52 °F
Humidity 43%
Rainfall 0.00 in
Snow Depth Not available.
5:54 AM 6:55 PM
Last Quarter, 45% visible
METAR KDMA 251358Z AUTO 18007KT 10SM CLR 23/12 A3005 RMK AO2 SLP131 T02260116 $

10-Day Weather Forecast

Almanac

Astronomy

Aug. 25, 2016 Rise Set
Actual Time
Civil Twilight
Nautical Twilight
Astronomical Twilight
Moon
Length of Visible Light
Length of Day
Tomorrow will be .
, % of the Moon is Illuminated

Today's Extremes

State Highs State Lows

Community

WunderPhotos

Upload Photos

1,934,849 photos uploaded!

WunderBlog® & News

Nearby

Air Quality

  Air Quality AQ Index Pollutant
Not available.

Snow Depth

Station Depth Elevation

Earthquake Activity

City Distance Mag. Time & Date
Minimum magnitude displayed is 2.5.

Coastal Water Temperatures

Place Temperature

Stations

Nearby Weather Stations

Station Location Temp. Windchill Dew Point Humidity Wind Precip. Elev Updated Type
                   

Watches & Warnings

There are currently no watches in effect.